createdAt,value
2019-04-30T00:00:18.212Z,29.73
2019-04-30T00:02:38.373Z,27.27
2019-04-30T00:04:45.276Z,28.87
2019-04-30T00:06:56.890Z,29.50
2019-04-30T00:09:15.118Z,28.40
2019-04-30T00:11:22.641Z,28.97
2019-04-30T00:13:35.762Z,30.27
2019-04-30T00:15:47.872Z,30.70
2019-04-30T00:18:01.836Z,28.70
2019-04-30T00:20:15.119Z,29.40
2019-04-30T00:22:33.494Z,27.57
2019-04-30T00:24:44.265Z,29.63
2019-04-30T00:26:52.858Z,28.27
2019-04-30T00:29:05.132Z,29.90
2019-04-30T00:31:17.621Z,25.70
2019-04-30T00:33:28.857Z,27.30
2019-04-30T00:35:39.808Z,30.57
2019-04-30T00:37:52.059Z,29.50
2019-04-30T00:40:05.596Z,28.27
2019-04-30T00:42:23.911Z,28.90
2019-04-30T00:44:30.120Z,28.70
2019-04-30T00:46:41.127Z,30.47
2019-04-30T00:48:52.044Z,30.90
2019-04-30T00:51:07.501Z,31.17
2019-04-30T00:53:16.654Z,30.93
2019-04-30T00:55:27.648Z,31.90
2019-04-30T00:57:43.630Z,28.60
2019-04-30T00:59:51.389Z,29.80
2019-04-30T01:02:13.195Z,29.00
2019-04-30T01:04:31.693Z,29.87
2019-04-30T01:06:42.658Z,30.83
2019-04-30T01:08:53.525Z,31.60
2019-04-30T01:11:09.357Z,28.97
2019-04-30T01:13:19.375Z,32.13
2019-04-30T01:15:30.314Z,30.87
2019-04-30T01:17:45.458Z,30.27
2019-04-30T01:19:54.581Z,31.87
2019-04-30T01:22:05.725Z,32.40
2019-04-30T01:24:16.680Z,29.23
2019-04-30T01:26:31.052Z,32.23
2019-04-30T01:28:40.796Z,29.20
2019-04-30T01:30:53.838Z,29.33
2019-04-30T01:33:05.012Z,30.93
2019-04-30T01:35:15.934Z,32.10
2019-04-30T01:37:29.646Z,30.73
2019-04-30T01:39:40.217Z,31.50
2019-04-30T01:41:51.182Z,31.77
2019-04-30T01:44:03.756Z,31.97
2019-04-30T01:46:15.016Z,29.30
2019-04-30T01:48:25.940Z,30.77
2019-04-30T01:50:38.675Z,32.53
2019-04-30T01:52:52.664Z,30.47
2019-04-30T01:55:04.179Z,30.27
2019-04-30T01:57:19.231Z,32.60
2019-04-30T01:59:31.897Z,31.97
2019-04-30T02:01:48.728Z,31.60
2019-04-30T02:03:59.694Z,31.23
2019-04-30T02:06:11.550Z,31.10
2019-04-30T02:08:22.741Z,31.70
2019-04-30T02:10:33.691Z,32.87
2019-04-30T02:12:44.639Z,31.77
2019-04-30T02:14:55.700Z,32.67
2019-04-30T02:17:06.676Z,30.60
2019-04-30T02:19:18.805Z,31.87
2019-04-30T02:21:30.914Z,29.93
2019-04-30T02:23:42.645Z,31.80
2019-04-30T02:25:58.828Z,30.77
2019-04-30T02:28:09.726Z,31.10
2019-04-30T02:30:21.117Z,32.47
2019-04-30T02:32:32.046Z,29.50
2019-04-30T02:34:49.775Z,29.93
2019-04-30T02:37:09.806Z,30.43
2019-04-30T02:39:20.890Z,31.20
2019-04-30T02:41:31.947Z,31.63
2019-04-30T02:43:43.832Z,31.37
2019-04-30T02:45:55.309Z,31.77
2019-04-30T02:48:06.505Z,30.50
2019-04-30T02:50:22.295Z,30.43
2019-04-30T02:52:32.427Z,31.77
2019-04-30T02:54:45.208Z,30.97
2019-04-30T02:56:59.684Z,30.63
2019-04-30T02:59:12.733Z,31.93
2019-04-30T03:01:23.563Z,31.03
2019-04-30T03:03:34.427Z,31.33
2019-04-30T03:05:45.256Z,30.50
2019-04-30T03:07:56.106Z,29.13
2019-04-30T03:10:09.802Z,30.10
2019-04-30T03:12:20.451Z,30.33
2019-04-30T03:14:33.367Z,28.17
2019-04-30T03:16:53.287Z,28.63
2019-04-30T03:19:24.199Z,28.97
2019-04-30T03:21:42.660Z,28.37
2019-04-30T03:23:53.577Z,27.27
2019-04-30T03:26:04.428Z,28.50
2019-04-30T03:28:19.933Z,28.20
2019-04-30T03:30:31.986Z,28.33
2019-04-30T03:32:43.825Z,28.47
2019-04-30T03:34:55.797Z,27.30
2019-04-30T03:37:06.648Z,28.63
2019-04-30T03:39:19.844Z,28.57
2019-04-30T03:41:33.469Z,27.87
2019-04-30T03:43:43.262Z,28.23
2019-04-30T03:45:54.524Z,27.70
2019-04-30T03:48:05.526Z,26.40
2019-04-30T03:50:19.605Z,26.70
2019-04-30T03:52:29.379Z,28.07
2019-04-30T03:54:40.987Z,27.77
2019-04-30T03:56:53.954Z,27.03
2019-04-30T03:59:04.798Z,26.33
2019-04-30T04:01:29.900Z,25.50
2019-04-30T04:04:00.338Z,24.80
2019-04-30T04:06:16.281Z,24.73
2019-04-30T04:08:29.455Z,26.00
2019-04-30T04:10:42.473Z,25.10
2019-04-30T04:12:55.311Z,26.57
2019-04-30T04:15:06.543Z,27.07
2019-04-30T04:17:20.097Z,25.67
2019-04-30T04:19:30.382Z,25.73
2019-04-30T04:21:41.289Z,25.73
2019-04-30T04:23:52.784Z,25.50
2019-04-30T04:26:03.741Z,25.77
2019-04-30T04:28:14.714Z,25.17
2019-04-30T04:30:25.751Z,26.67
2019-04-30T04:32:36.639Z,24.93
2019-04-30T04:34:50.054Z,26.50
2019-04-30T04:37:00.258Z,25.77
2019-04-30T04:39:11.214Z,24.80
2019-04-30T04:41:22.090Z,23.27
2019-04-30T04:43:33.096Z,25.60
2019-04-30T04:45:44.039Z,24.77
2019-04-30T04:47:55.086Z,25.23
2019-04-30T04:50:07.051Z,23.57
2019-04-30T04:52:20.622Z,26.73
2019-04-30T04:54:30.761Z,24.77
2019-04-30T04:56:41.710Z,25.00
2019-04-30T04:58:52.723Z,26.70
2019-04-30T05:01:03.670Z,24.87
2019-04-30T05:03:20.194Z,17.33
2019-04-30T05:05:31.276Z,22.77
2019-04-30T05:07:42.379Z,23.67
2019-04-30T05:09:53.290Z,23.50
2019-04-30T05:12:04.229Z,24.30
2019-04-30T05:14:15.092Z,23.17
2019-04-30T05:16:26.194Z,23.83
2019-04-30T05:18:38.978Z,24.87
2019-04-30T05:20:50.013Z,25.87
2019-04-30T05:23:00.934Z,25.87
2019-04-30T05:25:11.880Z,25.83
2019-04-30T05:27:22.725Z,22.90
2019-04-30T05:29:33.612Z,26.57
2019-04-30T05:31:44.462Z,25.10
2019-04-30T05:33:55.334Z,25.70
2019-04-30T05:36:06.265Z,28.13
2019-04-30T05:38:18.836Z,28.13
2019-04-30T05:40:29.900Z,26.77
2019-04-30T05:42:40.844Z,26.07
2019-04-30T05:44:51.738Z,27.33
2019-04-30T05:47:02.820Z,25.53
2019-04-30T05:49:13.686Z,25.10
2019-04-30T05:51:24.533Z,25.07
2019-04-30T05:53:35.427Z,26.93
2019-04-30T05:55:46.259Z,27.77
2019-04-30T05:57:58.784Z,26.73
2019-04-30T06:00:10.602Z,26.07
2019-04-30T06:02:21.669Z,25.53
2019-04-30T06:04:32.523Z,26.93
2019-04-30T06:06:43.383Z,24.83
2019-04-30T06:09:14.861Z,25.63
2019-04-30T06:11:39.924Z,26.17
2019-04-30T06:13:58.921Z,25.33
2019-04-30T06:16:11.881Z,27.70
2019-04-30T06:18:23.046Z,25.70
2019-04-30T06:20:35.835Z,26.30
2019-04-30T06:22:46.987Z,27.30
2019-04-30T06:24:59.460Z,26.40
2019-04-30T06:27:11.006Z,27.00
2019-04-30T06:29:22.378Z,26.90
2019-04-30T06:31:37.370Z,26.07
2019-04-30T06:33:46.599Z,27.30
2019-04-30T06:35:58.998Z,25.73
2019-04-30T06:38:10.086Z,26.03
2019-04-30T06:40:21.040Z,26.30
2019-04-30T06:42:33.811Z,27.40
2019-04-30T06:44:44.955Z,26.43
2019-04-30T06:46:55.945Z,27.20
2019-04-30T06:49:06.889Z,26.63
2019-04-30T06:51:18.886Z,24.67
2019-04-30T06:53:29.934Z,28.20
2019-04-30T06:55:41.026Z,25.17
2019-04-30T06:57:51.857Z,25.43
2019-04-30T07:00:06.525Z,26.47
2019-04-30T07:02:19.521Z,24.07
2019-04-30T07:04:30.259Z,24.10
2019-04-30T07:06:44.116Z,24.93
2019-04-30T07:09:13.801Z,23.73
2019-04-30T07:11:29.744Z,23.70
2019-04-30T07:13:41.400Z,24.87
2019-04-30T07:15:52.272Z,23.33
2019-04-30T07:18:03.337Z,24.53
2019-04-30T07:20:14.210Z,25.03
2019-04-30T07:22:37.714Z,24.53
2019-04-30T07:24:39.427Z,25.07
2019-04-30T07:26:54.754Z,24.47
2019-04-30T07:29:03.177Z,25.90
2019-04-30T07:31:14.905Z,24.67
2019-04-30T07:33:26.030Z,26.33
2019-04-30T07:35:36.982Z,26.87
2019-04-30T07:37:49.750Z,26.27
2019-04-30T07:40:00.798Z,27.63
2019-04-30T07:42:11.653Z,27.53
2019-04-30T07:44:35.470Z,24.97
2019-04-30T07:46:41.165Z,27.27
2019-04-30T07:48:50.096Z,28.23
2019-04-30T07:51:00.958Z,26.30
2019-04-30T07:53:12.714Z,26.90
2019-04-30T07:55:23.887Z,25.87
2019-04-30T07:57:34.721Z,26.10
2019-04-30T07:59:45.591Z,26.00
2019-04-30T08:02:04.053Z,26.70
2019-04-30T08:04:18.846Z,18.40
2019-04-30T08:06:31.000Z,25.50
2019-04-30T08:08:42.566Z,23.97
2019-04-30T08:10:53.529Z,25.80
2019-04-30T08:13:10.231Z,26.10
2019-04-30T08:15:17.146Z,24.63
2019-04-30T08:17:28.948Z,25.03
2019-04-30T08:19:41.209Z,24.53
2019-04-30T08:21:52.104Z,27.60
2019-04-30T08:24:03.076Z,27.13
2019-04-30T08:26:13.911Z,25.67
2019-04-30T08:28:24.816Z,28.37
2019-04-30T08:30:35.896Z,27.07
2019-04-30T08:32:46.759Z,27.60
2019-04-30T08:35:01.004Z,27.20
2019-04-30T08:37:17.087Z,26.43
2019-04-30T08:39:23.321Z,27.50
2019-04-30T08:41:34.174Z,25.43
2019-04-30T08:43:45.044Z,27.00
2019-04-30T08:45:55.894Z,29.00
2019-04-30T08:48:08.978Z,29.80
2019-04-30T08:50:20.650Z,29.10
2019-04-30T08:52:32.150Z,27.57
2019-04-30T08:54:45.031Z,28.33
2019-04-30T08:56:55.870Z,33.97
2019-04-30T08:59:10.873Z,30.40
2019-04-30T09:01:19.862Z,27.03
2019-04-30T09:03:30.787Z,26.43
2019-04-30T09:05:43.759Z,27.07
2019-04-30T09:07:54.630Z,28.47
2019-04-30T09:10:09.185Z,29.07
2019-04-30T09:12:20.237Z,27.43
2019-04-30T09:14:31.212Z,28.63
2019-04-30T09:16:42.120Z,27.03
2019-04-30T09:18:53.103Z,27.33
2019-04-30T09:21:06.371Z,27.67
2019-04-30T09:23:18.601Z,26.80
2019-04-30T09:25:29.482Z,27.60
2019-04-30T09:27:40.347Z,25.43
2019-04-30T09:29:51.323Z,26.60
2019-04-30T09:32:02.270Z,27.87
2019-04-30T09:34:17.095Z,24.37
2019-04-30T09:36:25.962Z,27.83
2019-04-30T09:38:38.817Z,24.63
2019-04-30T09:40:50.765Z,26.77
2019-04-30T09:43:01.934Z,25.37
2019-04-30T09:45:12.923Z,26.00
2019-04-30T09:47:23.773Z,26.13
2019-04-30T09:49:34.620Z,26.07
2019-04-30T09:51:45.511Z,22.87
2019-04-30T09:53:59.655Z,25.57
2019-04-30T09:56:09.652Z,26.57
2019-04-30T09:58:21.255Z,25.30
2019-04-30T10:00:32.520Z,26.33
2019-04-30T10:02:43.440Z,24.77
2019-04-30T10:04:54.706Z,22.87
2019-04-30T10:07:05.869Z,24.73
2019-04-30T10:09:19.332Z,24.97
2019-04-30T10:11:41.143Z,26.63
2019-04-30T10:13:52.211Z,25.57
2019-04-30T10:16:09.724Z,26.03
2019-04-30T10:18:20.623Z,25.00
2019-04-30T10:20:40.229Z,24.83
2019-04-30T10:22:51.076Z,23.27
2019-04-30T10:25:06.744Z,23.33
2019-04-30T10:27:19.093Z,23.47
2019-04-30T10:29:30.325Z,22.53
2019-04-30T10:31:41.302Z,24.97
2019-04-30T10:33:52.165Z,24.27
2019-04-30T10:36:03.186Z,23.70
2019-04-30T10:38:14.061Z,23.57
2019-04-30T10:40:25.047Z,24.60
2019-04-30T10:42:36.001Z,24.57
2019-04-30T10:44:47.128Z,23.90
2019-04-30T10:46:59.368Z,23.40
2019-04-30T10:49:10.650Z,23.30
2019-04-30T10:51:21.600Z,22.60
2019-04-30T10:53:32.468Z,22.43
2019-04-30T10:55:43.419Z,23.23
2019-04-30T10:57:54.276Z,21.80
2019-04-30T11:00:10.121Z,21.83
2019-04-30T11:02:21.227Z,20.73
2019-04-30T11:04:32.177Z,20.07
2019-04-30T11:06:43.135Z,21.03
2019-04-30T11:08:54.510Z,22.70
2019-04-30T11:11:05.563Z,18.57
2019-04-30T11:13:16.426Z,19.30
2019-04-30T11:15:29.209Z,17.43
2019-04-30T11:17:40.564Z,16.47
2019-04-30T11:19:51.777Z,18.67
2019-04-30T11:22:04.224Z,18.80
2019-04-30T11:24:15.629Z,19.70
2019-04-30T11:26:30.804Z,19.60
2019-04-30T11:28:39.816Z,19.63
2019-04-30T11:30:53.198Z,18.53
2019-04-30T11:33:04.497Z,19.90
2019-04-30T11:35:15.683Z,18.63
2019-04-30T11:37:26.664Z,17.40
2019-04-30T11:39:37.725Z,17.57
2019-04-30T11:41:48.822Z,15.93
2019-04-30T11:43:59.769Z,17.37
2019-04-30T11:46:28.574Z,19.50
2019-04-30T11:48:39.480Z,19.40
2019-04-30T11:50:50.420Z,19.63
2019-04-30T11:53:19.640Z,19.07
2019-04-30T11:55:14.270Z,20.03
2019-04-30T11:57:25.116Z,19.77
2019-04-30T11:59:36.103Z,18.70
2019-04-30T12:01:48.464Z,17.83
2019-04-30T12:03:59.880Z,15.47
2019-04-30T12:06:11.228Z,15.07
2019-04-30T12:08:27.050Z,14.40
2019-04-30T12:10:39.885Z,13.53
2019-04-30T12:12:50.747Z,14.10
2019-04-30T12:15:02.894Z,13.20
2019-04-30T12:17:13.968Z,13.80
2019-04-30T12:19:24.826Z,12.50
2019-04-30T12:21:35.785Z,9.37
2019-04-30T12:23:46.631Z,11.73
2019-04-30T12:26:01.010Z,11.77
2019-04-30T12:28:10.339Z,12.27
2019-04-30T12:30:21.610Z,11.63
2019-04-30T12:32:35.178Z,10.90
2019-04-30T12:34:45.222Z,12.83
2019-04-30T12:36:56.206Z,12.83
2019-04-30T12:39:07.249Z,11.70
2019-04-30T12:41:18.247Z,11.97
2019-04-30T12:43:29.660Z,11.30
2019-04-30T12:45:40.512Z,11.93
2019-04-30T12:47:59.453Z,10.03
2019-04-30T12:50:15.462Z,10.73
2019-04-30T12:52:29.615Z,11.43
2019-04-30T12:54:42.411Z,10.97
2019-04-30T12:57:01.230Z,11.63
2019-04-30T12:59:12.094Z,10.80
2019-04-30T13:01:23.079Z,10.80
2019-04-30T13:03:33.932Z,11.13
2019-04-30T13:05:45.190Z,9.70
2019-04-30T13:07:57.472Z,10.73
2019-04-30T13:10:10.143Z,11.17
2019-04-30T13:12:21.944Z,10.10
2019-04-30T13:14:36.855Z,10.53
2019-04-30T13:16:46.392Z,10.57
2019-04-30T13:18:59.287Z,10.60
2019-04-30T13:21:10.226Z,11.20
2019-04-30T13:23:21.106Z,12.10
2019-04-30T13:25:35.468Z,11.67
2019-04-30T13:27:46.664Z,11.33
2019-04-30T13:30:05.470Z,11.87
2019-04-30T13:32:29.565Z,11.27
2019-04-30T13:34:44.954Z,11.43
2019-04-30T13:36:55.810Z,10.07
2019-04-30T13:39:11.305Z,10.87
2019-04-30T13:41:44.531Z,10.20
2019-04-30T13:43:58.735Z,10.67
2019-04-30T13:46:09.722Z,11.43
2019-04-30T13:48:20.622Z,10.87
2019-04-30T13:50:31.530Z,10.90
2019-04-30T13:52:42.523Z,10.83
2019-04-30T13:54:55.249Z,10.33
2019-04-30T13:57:06.106Z,11.30
2019-04-30T13:59:17.005Z,10.13
2019-04-30T14:01:29.386Z,10.10
2019-04-30T14:03:51.566Z,10.87
2019-04-30T14:06:03.500Z,11.13
2019-04-30T14:08:20.015Z,9.53
2019-04-30T14:10:32.911Z,9.53
2019-04-30T14:12:45.770Z,9.87
2019-04-30T14:14:56.647Z,10.30
2019-04-30T14:17:09.200Z,9.53
2019-04-30T14:19:20.381Z,10.53
2019-04-30T14:21:35.271Z,9.47
2019-04-30T14:23:44.300Z,10.83
2019-04-30T14:25:56.548Z,9.53
2019-04-30T14:28:09.442Z,8.70
2019-04-30T14:30:20.916Z,9.67
2019-04-30T14:32:31.779Z,9.53
2019-04-30T14:34:42.739Z,9.07
2019-04-30T14:36:53.673Z,9.10
2019-04-30T14:39:14.419Z,9.20
2019-04-30T14:41:19.767Z,8.50
2019-04-30T14:43:45.360Z,8.33
2019-04-30T14:46:05.007Z,8.43
2019-04-30T14:48:20.845Z,8.93
2019-04-30T14:50:32.562Z,9.37
2019-04-30T14:52:48.321Z,10.17
2019-04-30T14:55:04.105Z,10.50
2019-04-30T14:57:33.425Z,11.30
2019-04-30T15:00:03.344Z,8.80
2019-04-30T15:02:29.619Z,9.47
2019-04-30T15:04:40.681Z,9.37
2019-04-30T15:06:51.539Z,9.60
2019-04-30T15:09:05.362Z,9.77
2019-04-30T15:11:16.337Z,9.10
2019-04-30T15:13:29.407Z,9.27
2019-04-30T15:15:40.153Z,10.07
2019-04-30T15:17:52.968Z,9.53
2019-04-30T15:20:04.811Z,9.10
2019-04-30T15:22:15.837Z,8.70
2019-04-30T15:24:29.358Z,8.10
2019-04-30T15:26:41.313Z,8.77
2019-04-30T15:28:52.241Z,8.10
2019-04-30T15:31:03.356Z,8.60
2019-04-30T15:33:19.096Z,7.03
2019-04-30T15:35:30.073Z,7.50
2019-04-30T15:37:42.970Z,8.30
2019-04-30T15:39:53.809Z,8.50
2019-04-30T15:42:04.898Z,7.17
2019-04-30T15:44:15.993Z,7.73
2019-04-30T15:46:27.059Z,7.90
2019-04-30T15:48:37.901Z,7.83
2019-04-30T15:50:49.341Z,7.20
2019-04-30T15:53:02.229Z,7.23
2019-04-30T15:55:13.216Z,7.47
2019-04-30T15:57:24.230Z,7.03
2019-04-30T15:59:39.771Z,7.80
2019-04-30T16:01:52.546Z,6.87
2019-04-30T16:04:03.819Z,5.93
2019-04-30T16:06:14.714Z,8.30
2019-04-30T16:08:29.086Z,7.77
2019-04-30T16:10:50.992Z,8.20
2019-04-30T16:13:19.531Z,8.67
2019-04-30T16:15:30.800Z,8.47
2019-04-30T16:17:43.592Z,8.03
2019-04-30T16:19:54.452Z,7.70
2019-04-30T16:22:05.562Z,9.03
2019-04-30T16:24:18.644Z,8.60
2019-04-30T16:26:29.392Z,8.30
2019-04-30T16:28:40.275Z,8.70
2019-04-30T16:30:51.318Z,8.20
2019-04-30T16:33:02.411Z,8.63
2019-04-30T16:35:13.339Z,8.37
2019-04-30T16:37:24.268Z,8.27
2019-04-30T16:39:35.185Z,8.50
2019-04-30T16:41:46.146Z,8.87
2019-04-30T16:43:57.021Z,8.23
2019-04-30T16:46:07.998Z,7.33
2019-04-30T16:48:19.437Z,8.00
2019-04-30T16:50:30.635Z,8.20
2019-04-30T16:52:41.497Z,8.13
2019-04-30T16:54:56.330Z,8.07
2019-04-30T16:57:07.298Z,7.03
2019-04-30T16:59:20.063Z,8.10
2019-04-30T17:01:32.348Z,6.80
2019-04-30T17:03:45.238Z,8.47
2019-04-30T17:05:59.639Z,7.53
2019-04-30T17:08:21.548Z,8.10
2019-04-30T17:10:50.931Z,8.13
2019-04-30T17:13:03.691Z,8.83
2019-04-30T17:15:22.430Z,7.20
2019-04-30T17:17:33.262Z,8.20
2019-04-30T17:19:44.299Z,7.90
2019-04-30T17:21:55.312Z,6.97
2019-04-30T17:24:06.293Z,8.77
2019-04-30T17:26:17.187Z,9.10
2019-04-30T17:28:28.569Z,8.77
2019-04-30T17:30:39.532Z,8.53
2019-04-30T17:32:50.478Z,8.87
2019-04-30T17:35:01.536Z,8.40
2019-04-30T17:37:12.494Z,7.33
2019-04-30T17:39:23.839Z,8.13
2019-04-30T17:41:34.823Z,9.27
2019-04-30T17:43:45.704Z,8.63
2019-04-30T17:45:56.701Z,8.33
2019-04-30T17:48:07.664Z,6.87
2019-04-30T17:50:18.882Z,10.07
2019-04-30T17:52:29.911Z,10.03
2019-04-30T17:54:41.112Z,8.50
2019-04-30T17:56:51.962Z,8.27
2019-04-30T17:59:03.014Z,7.00
2019-04-30T18:01:14.204Z,7.77
2019-04-30T18:03:25.417Z,7.80
2019-04-30T18:05:36.518Z,8.60
2019-04-30T18:07:49.629Z,7.60
2019-04-30T18:10:00.312Z,9.07
2019-04-30T18:12:11.205Z,11.93
2019-04-30T18:14:22.092Z,8.47
2019-04-30T18:16:35.062Z,11.77
2019-04-30T18:18:51.204Z,11.67
2019-04-30T18:21:16.174Z,8.03
2019-04-30T18:23:31.783Z,8.10
2019-04-30T18:25:44.631Z,7.40
2019-04-30T18:28:00.545Z,8.20
2019-04-30T18:30:13.492Z,7.20
2019-04-30T18:32:26.014Z,7.87
2019-04-30T18:34:38.714Z,8.03
2019-04-30T18:36:51.194Z,7.73
2019-04-30T18:39:05.090Z,7.47
2019-04-30T18:41:19.359Z,8.23
2019-04-30T18:43:30.330Z,7.30
2019-04-30T18:45:41.401Z,8.30
2019-04-30T18:47:52.473Z,8.30
2019-04-30T18:50:04.935Z,8.10
2019-04-30T18:52:15.755Z,19.33
2019-04-30T18:54:28.604Z,17.33
2019-04-30T18:56:39.433Z,10.03
2019-04-30T18:58:50.703Z,8.23
2019-04-30T19:01:01.756Z,7.17
2019-04-30T19:03:12.798Z,8.47
2019-04-30T19:05:25.928Z,7.80
2019-04-30T19:07:38.884Z,8.17
2019-04-30T19:09:54.629Z,8.60
2019-04-30T19:12:23.934Z,8.43
2019-04-30T19:14:45.645Z,8.47
2019-04-30T19:17:04.224Z,8.50
2019-04-30T19:19:17.029Z,9.57
2019-04-30T19:21:28.220Z,8.70
2019-04-30T19:23:39.207Z,8.53
2019-04-30T19:25:50.170Z,8.90
2019-04-30T19:28:11.321Z,8.60
2019-04-30T19:30:14.392Z,8.00
2019-04-30T19:32:25.255Z,8.23
2019-04-30T19:34:36.309Z,9.50
2019-04-30T19:36:49.131Z,8.70
2019-04-30T19:39:00.144Z,8.83
2019-04-30T19:41:11.212Z,8.67
2019-04-30T19:43:22.487Z,9.50
2019-04-30T19:45:34.794Z,9.23
2019-04-30T19:47:45.951Z,9.17
2019-04-30T19:49:57.214Z,9.53
2019-04-30T19:52:11.829Z,9.20
2019-04-30T19:54:23.300Z,9.33
2019-04-30T19:56:34.455Z,9.70
2019-04-30T19:58:57.205Z,8.93
2019-04-30T20:00:59.518Z,9.10
2019-04-30T20:03:11.807Z,9.67
2019-04-30T20:05:22.793Z,9.80
2019-04-30T20:07:33.735Z,9.23
2019-04-30T20:09:57.264Z,9.13
2019-04-30T20:11:59.609Z,9.50
2019-04-30T20:14:10.467Z,9.57
2019-04-30T20:16:21.753Z,9.50
2019-04-30T20:18:32.686Z,9.53
2019-04-30T20:20:45.577Z,10.00
2019-04-30T20:22:56.480Z,10.50
2019-04-30T20:25:09.153Z,9.70
2019-04-30T20:27:20.261Z,9.87
2019-04-30T20:29:31.129Z,9.87
2019-04-30T20:31:42.015Z,9.43
2019-04-30T20:33:53.770Z,10.30
2019-04-30T20:36:04.948Z,10.07
2019-04-30T20:38:19.449Z,9.27
2019-04-30T20:40:43.055Z,10.57
2019-04-30T20:42:45.106Z,10.30
2019-04-30T20:44:56.103Z,10.77
2019-04-30T20:47:08.838Z,10.73
2019-04-30T20:49:20.053Z,9.80
2019-04-30T20:51:31.044Z,9.93
2019-04-30T20:53:41.925Z,10.43
2019-04-30T20:55:52.795Z,10.40
2019-04-30T20:58:03.876Z,10.23
2019-04-30T21:00:14.853Z,11.50
2019-04-30T21:02:25.741Z,10.20
2019-04-30T21:04:36.585Z,10.33
2019-04-30T21:06:49.516Z,11.47
2019-04-30T21:09:00.468Z,10.67
2019-04-30T21:11:11.426Z,10.93
2019-04-30T21:13:22.406Z,11.47
2019-04-30T21:15:33.381Z,11.43
2019-04-30T21:17:44.359Z,11.90
2019-04-30T21:20:01.048Z,11.33
2019-04-30T21:22:12.079Z,12.30
2019-04-30T21:24:22.954Z,13.40
2019-04-30T21:26:33.934Z,13.03
2019-04-30T21:28:44.939Z,12.40
2019-04-30T21:30:55.791Z,11.73
2019-04-30T21:33:14.808Z,11.67
2019-04-30T21:35:27.786Z,12.27
2019-04-30T21:37:38.668Z,11.13
2019-04-30T21:39:50.155Z,11.67
2019-04-30T21:42:01.311Z,12.13
2019-04-30T21:44:12.682Z,11.67
2019-04-30T21:46:23.541Z,11.07
2019-04-30T21:48:35.351Z,12.40
2019-04-30T21:50:46.214Z,11.63
2019-04-30T21:52:57.064Z,12.90
2019-04-30T21:55:09.701Z,10.90
2019-04-30T21:57:20.824Z,10.80
2019-04-30T21:59:31.893Z,11.67
2019-04-30T22:01:44.966Z,12.17
2019-04-30T22:03:55.841Z,10.47
2019-04-30T22:06:08.495Z,13.07
2019-04-30T22:08:19.776Z,12.27
2019-04-30T22:10:30.737Z,11.80
2019-04-30T22:12:41.594Z,13.77
2019-04-30T22:14:54.492Z,12.93
2019-04-30T22:17:05.557Z,12.97
2019-04-30T22:19:16.538Z,12.87
2019-04-30T22:21:28.336Z,13.70
2019-04-30T22:23:40.332Z,12.23
2019-04-30T22:25:53.222Z,13.87
2019-04-30T22:28:04.258Z,13.73
2019-04-30T22:30:15.669Z,13.20
2019-04-30T22:32:26.563Z,12.53
2019-04-30T22:34:37.545Z,14.00
2019-04-30T22:36:48.995Z,13.63
2019-04-30T22:39:19.934Z,13.03
2019-04-30T22:41:32.951Z,13.20
2019-04-30T22:43:43.812Z,12.57
2019-04-30T22:45:59.656Z,12.30
2019-04-30T22:48:10.638Z,12.40
2019-04-30T22:50:22.735Z,12.33
2019-04-30T22:52:33.595Z,12.60
2019-04-30T22:54:44.522Z,13.63
2019-04-30T22:56:55.348Z,13.17
2019-04-30T22:59:06.401Z,14.43
2019-04-30T23:01:35.798Z,14.27
2019-04-30T23:03:47.081Z,14.47
2019-04-30T23:05:58.056Z,14.10
2019-04-30T23:08:09.021Z,15.90
2019-04-30T23:10:20.023Z,15.53
2019-04-30T23:12:31.189Z,15.23
2019-04-30T23:14:42.125Z,15.70
2019-04-30T23:16:55.814Z,15.10
2019-04-30T23:19:06.674Z,14.87
2019-04-30T23:21:17.707Z,14.93
2019-04-30T23:23:28.638Z,16.23
2019-04-30T23:25:39.539Z,16.50
2019-04-30T23:27:50.409Z,15.00
2019-04-30T23:30:03.614Z,15.93
2019-04-30T23:32:14.115Z,14.53
2019-04-30T23:34:25.057Z,15.50
2019-04-30T23:36:35.919Z,13.43
2019-04-30T23:38:46.844Z,14.80
2019-04-30T23:40:57.678Z,13.73
2019-04-30T23:43:08.546Z,14.20
2019-04-30T23:45:19.621Z,15.27
2019-04-30T23:47:30.468Z,14.30
2019-04-30T23:49:41.298Z,14.80
2019-04-30T23:51:52.221Z,15.10
2019-04-30T23:54:03.343Z,14.47
2019-04-30T23:56:14.201Z,15.43
2019-04-30T23:58:25.047Z,13.17
